Decoded Metar for KBPK (MOUNTAIN HOME in AR, USA) (IATA:BPK) | Meteo·Mobile Aviation Weather
aviador You're here:

KBPK Decoded Metar

MOUNTAIN HOME in AR, USA
Report Time2018-12-18 16:53:00
UTC Time2018-12-18 17:27:54
Flight Rules vfr VFR
Wind160° at 08 kt
W.Decomp.*RWY 23: 2.3 kt HW 7.7 kt LCW
W.Rank160° ranks 2
Current wind is above 160° avg. (5.5)
Visibility9999 m
Phenomena:N/A
Clouds:N/A
Expected CloudBase > 3,200 ft AGL from Temp-Dew spread
CeilingNone
Temp09°C (ISA -4)
Dew Point01°C (58% RH)
AAT4.3°C
QNH1021 hPa
Density Alt243 ft
Elevation919 ft
Report Wrong Elevation
Raw Report
KBPK 181653Z AUTO 16008KT 10SM CLR 09/01 A3016 RMK AO2 SLP214
T00940006=

Extra information for KBPK:More info

Metar Taf Metar & Taf Last 4 Metars F.Rules Stats Wind Profile Meteogram Temp Stats Airport Information Weather charts Add Link Nearby VenuesMetar ALERT Operation Metar Decoded Social comments

AIRNAV info for KBPK